sensor_id;sensor_type;location;lat;lon;timestamp;P1;durP1;ratioP1;P2;durP2;ratioP2
9974;SDS011;5028;50.974;4.968;2024-01-10T00:00:08;5.17;;;4.40;;
9974;SDS011;5028;50.974;4.968;2024-01-10T00:02:37;7.83;;;5.13;;
9974;SDS011;5028;50.974;4.968;2024-01-10T00:05:06;8.73;;;5.00;;
9974;SDS011;5028;50.974;4.968;2024-01-10T00:07:36;8.07;;;5.17;;
9974;SDS011;5028;50.974;4.968;2024-01-10T00:10:04;7.47;;;5.00;;
9974;SDS011;5028;50.974;4.968;2024-01-10T00:12:34;7.90;;;5.30;;
9974;SDS011;5028;50.974;4.968;2024-01-10T00:15:03;6.37;;;5.27;;
9974;SDS011;5028;50.974;4.968;2024-01-10T00:17:32;8.40;;;5.10;;
9974;SDS011;5028;50.974;4.968;2024-01-10T00:20:00;7.13;;;4.80;;
9974;SDS011;5028;50.974;4.968;2024-01-10T00:22:29;7.03;;;4.90;;
9974;SDS011;5028;50.974;4.968;2024-01-10T00:24:59;7.33;;;5.23;;
9974;SDS011;5028;50.974;4.968;2024-01-10T00:27:27;7.90;;;5.23;;
9974;SDS011;5028;50.974;4.968;2024-01-10T00:29:55;6.97;;;5.10;;
9974;SDS011;5028;50.974;4.968;2024-01-10T00:32:24;6.97;;;4.67;;
9974;SDS011;5028;50.974;4.968;2024-01-10T00:34:52;6.77;;;5.03;;
9974;SDS011;5028;50.974;4.968;2024-01-10T00:37:20;8.60;;;5.17;;
9974;SDS011;5028;50.974;4.968;2024-01-10T00:39:49;7.60;;;5.00;;
9974;SDS011;5028;50.974;4.968;2024-01-10T00:42:18;7.17;;;5.10;;
9974;SDS011;5028;50.974;4.968;2024-01-10T00:44:47;5.70;;;4.63;;
9974;SDS011;5028;50.974;4.968;2024-01-10T00:47:15;7.13;;;5.30;;
9974;SDS011;5028;50.974;4.968;2024-01-10T00:49:43;6.07;;;5.00;;
9974;SDS011;5028;50.974;4.968;2024-01-10T00:52:12;8.33;;;5.07;;
9974;SDS011;5028;50.974;4.968;2024-01-10T00:54:40;8.63;;;5.37;;
9974;SDS011;5028;50.974;4.968;2024-01-10T00:57:10;6.60;;;5.20;;
9974;SDS011;5028;50.974;4.968;2024-01-10T00:59:40;7.47;;;4.60;;
9974;SDS011;5028;50.974;4.968;2024-01-10T01:02:08;7.17;;;5.30;;
9974;SDS011;5028;50.974;4.968;2024-01-10T01:04:36;6.77;;;5.10;;
9974;SDS011;5028;50.974;4.968;2024-01-10T01:07:05;6.73;;;4.63;;
9974;SDS011;5028;50.974;4.968;2024-01-10T01:09:33;7.73;;;5.10;;
9974;SDS011;5028;50.974;4.968;2024-01-10T01:12:02;5.67;;;4.60;;
9974;SDS011;5028;50.974;4.968;2024-01-10T01:14:31;6.30;;;5.07;;
9974;SDS011;5028;50.974;4.968;2024-01-10T01:17:01;6.53;;;4.90;;
9974;SDS011;5028;50.974;4.968;2024-01-10T01:19:30;8.20;;;5.53;;
9974;SDS011;5028;50.974;4.968;2024-01-10T01:21:58;7.10;;;4.87;;
9974;SDS011;5028;50.974;4.968;2024-01-10T01:24:26;7.97;;;4.80;;
9974;SDS011;5028;50.974;4.968;2024-01-10T01:26:55;6.53;;;4.73;;
9974;SDS011;5028;50.974;4.968;2024-01-10T01:29:23;8.23;;;5.03;;
9974;SDS011;5028;50.974;4.968;2024-01-10T01:31:52;8.33;;;5.57;;
9974;SDS011;5028;50.974;4.968;2024-01-10T01:34:22;5.97;;;4.73;;
9974;SDS011;5028;50.974;4.968;2024-01-10T01:36:50;7.77;;;4.97;;
9974;SDS011;5028;50.974;4.968;2024-01-10T01:39:18;6.80;;;4.80;;
9974;SDS011;5028;50.974;4.968;2024-01-10T01:41:46;7.53;;;5.33;;
9974;SDS011;5028;50.974;4.968;2024-01-10T01:44:15;7.80;;;5.23;;
9974;SDS011;5028;50.974;4.968;2024-01-10T01:46:43;8.00;;;5.33;;
9974;SDS011;5028;50.974;4.968;2024-01-10T01:49:13;7.50;;;5.40;;
9974;SDS011;5028;50.974;4.968;2024-01-10T01:51:44;6.23;;;4.73;;
9974;SDS011;5028;50.974;4.968;2024-01-10T01:54:12;9.70;;;5.23;;
9974;SDS011;5028;50.974;4.968;2024-01-10T01:56:40;6.43;;;4.43;;
9974;SDS011;5028;50.974;4.968;2024-01-10T01:59:11;9.20;;;5.40;;
9974;SDS011;5028;50.974;4.968;2024-01-10T02:01:40;7.00;;;5.10;;
9974;SDS011;5028;50.974;4.968;2024-01-10T02:04:09;8.40;;;5.30;;
9974;SDS011;5028;50.974;4.968;2024-01-10T02:06:37;7.33;;;4.70;;
9974;SDS011;5028;50.974;4.968;2024-01-10T02:09:07;8.57;;;5.57;;
9974;SDS011;5028;50.974;4.968;2024-01-10T02:11:35;8.60;;;5.33;;
9974;SDS011;5028;50.974;4.968;2024-01-10T02:14:04;7.67;;;4.77;;
9974;SDS011;5028;50.974;4.968;2024-01-10T02:16:33;7.13;;;5.40;;
9974;SDS011;5028;50.974;4.968;2024-01-10T02:19:06;7.27;;;5.17;;
9974;SDS011;5028;50.974;4.968;2024-01-10T02:21:45;6.93;;;5.03;;
9974;SDS011;5028;50.974;4.968;2024-01-10T02:24:15;8.00;;;5.07;;
9974;SDS011;5028;50.974;4.968;2024-01-10T02:26:44;9.73;;;5.63;;
9974;SDS011;5028;50.974;4.968;2024-01-10T02:29:13;8.13;;;4.83;;
9974;SDS011;5028;50.974;4.968;2024-01-10T02:31:41;7.33;;;5.13;;
9974;SDS011;5028;50.974;4.968;2024-01-10T02:34:10;7.57;;;5.23;;
9974;SDS011;5028;50.974;4.968;2024-01-10T02:36:39;7.37;;;5.23;;
9974;SDS011;5028;50.974;4.968;2024-01-10T02:39:07;7.43;;;5.40;;
9974;SDS011;5028;50.974;4.968;2024-01-10T02:41:35;8.07;;;5.00;;
9974;SDS011;5028;50.974;4.968;2024-01-10T02:44:05;8.60;;;5.10;;
9974;SDS011;5028;50.974;4.968;2024-01-10T02:46:33;6.90;;;5.07;;
9974;SDS011;5028;50.974;4.968;2024-01-10T02:49:02;7.33;;;5.33;;
9974;SDS011;5028;50.974;4.968;2024-01-10T02:51:31;7.90;;;5.10;;
9974;SDS011;5028;50.974;4.968;2024-01-10T02:53:59;7.23;;;4.97;;
9974;SDS011;5028;50.974;4.968;2024-01-10T02:56:27;8.10;;;5.03;;
9974;SDS011;5028;50.974;4.968;2024-01-10T02:58:55;7.03;;;5.17;;
9974;SDS011;5028;50.974;4.968;2024-01-10T03:01:25;8.37;;;5.30;;
9974;SDS011;5028;50.974;4.968;2024-01-10T03:03:53;7.17;;;5.40;;
9974;SDS011;5028;50.974;4.968;2024-01-10T03:06:21;7.53;;;5.17;;
9974;SDS011;5028;50.974;4.968;2024-01-10T03:08:50;7.13;;;5.13;;
9974;SDS011;5028;50.974;4.968;2024-01-10T03:11:18;8.17;;;5.50;;
9974;SDS011;5028;50.974;4.968;2024-01-10T03:13:47;6.27;;;4.97;;
9974;SDS011;5028;50.974;4.968;2024-01-10T03:16:18;7.67;;;5.27;;
9974;SDS011;5028;50.974;4.968;2024-01-10T03:18:48;9.77;;;5.07;;
9974;SDS011;5028;50.974;4.968;2024-01-10T03:21:16;8.50;;;5.70;;
9974;SDS011;5028;50.974;4.968;2024-01-10T03:23:49;8.13;;;5.20;;
9974;SDS011;5028;50.974;4.968;2024-01-10T03:26:17;7.37;;;5.40;;
9974;SDS011;5028;50.974;4.968;2024-01-10T03:28:46;6.13;;;4.60;;
9974;SDS011;5028;50.974;4.968;2024-01-10T03:31:14;8.17;;;5.10;;
9974;SDS011;5028;50.974;4.968;2024-01-10T03:33:43;7.80;;;5.43;;
9974;SDS011;5028;50.974;4.968;2024-01-10T03:36:14;7.97;;;5.57;;
9974;SDS011;5028;50.974;4.968;2024-01-10T03:38:43;6.03;;;4.93;;
9974;SDS011;5028;50.974;4.968;2024-01-10T03:41:12;8.33;;;5.13;;
9974;SDS011;5028;50.974;4.968;2024-01-10T03:43:41;6.63;;;4.93;;
9974;SDS011;5028;50.974;4.968;2024-01-10T03:46:10;7.00;;;5.07;;
9974;SDS011;5028;50.974;4.968;2024-01-10T03:48:38;7.37;;;5.77;;
9974;SDS011;5028;50.974;4.968;2024-01-10T03:51:16;8.00;;;5.30;;
9974;SDS011;5028;50.974;4.968;2024-01-10T03:53:45;6.97;;;5.30;;
9974;SDS011;5028;50.974;4.968;2024-01-10T03:56:15;6.87;;;5.10;;
9974;SDS011;5028;50.974;4.968;2024-01-10T03:58:44;7.47;;;5.60;;
9974;SDS011;5028;50.974;4.968;2024-01-10T04:01:15;7.60;;;5.73;;
9974;SDS011;5028;50.974;4.968;2024-01-10T04:03:43;9.63;;;5.70;;
9974;SDS011;5028;50.974;4.968;2024-01-10T04:06:12;6.57;;;5.17;;
9974;SDS011;5028;50.974;4.968;2024-01-10T04:08:42;7.50;;;5.33;;
9974;SDS011;5028;50.974;4.968;2024-01-10T04:11:10;8.73;;;5.50;;
9974;SDS011;5028;50.974;4.968;2024-01-10T04:13:38;6.53;;;5.03;;
9974;SDS011;5028;50.974;4.968;2024-01-10T04:16:07;8.43;;;5.47;;
9974;SDS011;5028;50.974;4.968;2024-01-10T04:18:35;7.27;;;5.43;;
9974;SDS011;5028;50.974;4.968;2024-01-10T04:21:04;7.90;;;5.20;;
9974;SDS011;5028;50.974;4.968;2024-01-10T04:23:32;7.33;;;5.40;;
9974;SDS011;5028;50.974;4.968;2024-01-10T04:26:02;8.53;;;5.77;;
9974;SDS011;5028;50.974;4.968;2024-01-10T04:28:31;7.17;;;5.07;;
9974;SDS011;5028;50.974;4.968;2024-01-10T04:30:59;7.57;;;5.50;;
9974;SDS011;5028;50.974;4.968;2024-01-10T04:33:28;6.50;;;5.23;;
9974;SDS011;5028;50.974;4.968;2024-01-10T04:35:56;7.13;;;4.97;;
9974;SDS011;5028;50.974;4.968;2024-01-10T04:38:24;8.73;;;4.47;;
9974;SDS011;5028;50.974;4.968;2024-01-10T04:40:53;6.50;;;4.93;;
9974;SDS011;5028;50.974;4.968;2024-01-10T04:43:23;8.23;;;5.23;;
9974;SDS011;5028;50.974;4.968;2024-01-10T04:45:51;6.47;;;4.80;;
9974;SDS011;5028;50.974;4.968;2024-01-10T04:48:20;7.77;;;5.07;;
9974;SDS011;5028;50.974;4.968;2024-01-10T04:50:49;6.33;;;4.83;;
9974;SDS011;5028;50.974;4.968;2024-01-10T04:53:17;6.17;;;4.80;;
9974;SDS011;5028;50.974;4.968;2024-01-10T04:55:45;9.10;;;4.63;;
9974;SDS011;5028;50.974;4.968;2024-01-10T04:58:17;6.30;;;4.47;;
9974;SDS011;5028;50.974;4.968;2024-01-10T05:00:50;6.27;;;4.90;;
9974;SDS011;5028;50.974;4.968;2024-01-10T05:03:21;6.90;;;4.63;;
9974;SDS011;5028;50.974;4.968;2024-01-10T05:05:49;6.77;;;4.60;;
9974;SDS011;5028;50.974;4.968;2024-01-10T05:08:18;7.37;;;5.13;;
9974;SDS011;5028;50.974;4.968;2024-01-10T05:10:47;7.33;;;4.97;;
9974;SDS011;5028;50.974;4.968;2024-01-10T05:13:15;6.67;;;4.97;;
9974;SDS011;5028;50.974;4.968;2024-01-10T05:15:44;6.53;;;4.47;;
9974;SDS011;5028;50.974;4.968;2024-01-10T05:18:13;8.43;;;5.20;;
9974;SDS011;5028;50.974;4.968;2024-01-10T05:20:42;7.53;;;4.77;;
9974;SDS011;5028;50.974;4.968;2024-01-10T05:23:10;6.63;;;5.07;;
9974;SDS011;5028;50.974;4.968;2024-01-10T05:25:39;6.97;;;5.00;;
9974;SDS011;5028;50.974;4.968;2024-01-10T05:28:07;8.53;;;4.87;;
9974;SDS011;5028;50.974;4.968;2024-01-10T05:30:35;6.63;;;4.87;;
9974;SDS011;5028;50.974;4.968;2024-01-10T05:33:04;6.97;;;4.70;;
9974;SDS011;5028;50.974;4.968;2024-01-10T05:35:34;7.57;;;4.77;;
9974;SDS011;5028;50.974;4.968;2024-01-10T05:38:02;7.33;;;5.50;;
9974;SDS011;5028;50.974;4.968;2024-01-10T05:40:30;8.13;;;5.37;;
9974;SDS011;5028;50.974;4.968;2024-01-10T05:42:59;7.17;;;5.07;;
9974;SDS011;5028;50.974;4.968;2024-01-10T05:45:27;8.53;;;5.23;;
9974;SDS011;5028;50.974;4.968;2024-01-10T05:47:56;6.00;;;4.80;;
9974;SDS011;5028;50.974;4.968;2024-01-10T05:50:26;6.43;;;4.73;;
9974;SDS011;5028;50.974;4.968;2024-01-10T05:52:58;7.63;;;5.03;;
9974;SDS011;5028;50.974;4.968;2024-01-10T05:55:26;8.23;;;4.63;;
9974;SDS011;5028;50.974;4.968;2024-01-10T05:57:54;7.10;;;5.10;;
9974;SDS011;5028;50.974;4.968;2024-01-10T06:00:23;6.97;;;4.83;;
9974;SDS011;5028;50.974;4.968;2024-01-10T06:02:51;7.20;;;4.87;;
9974;SDS011;5028;50.974;4.968;2024-01-10T06:05:19;7.13;;;4.97;;
9974;SDS011;5028;50.974;4.968;2024-01-10T06:07:48;9.07;;;5.20;;
9974;SDS011;5028;50.974;4.968;2024-01-10T06:10:18;5.93;;;4.53;;
9974;SDS011;5028;50.974;4.968;2024-01-10T06:12:47;7.60;;;5.13;;
9974;SDS011;5028;50.974;4.968;2024-01-10T06:15:15;7.10;;;5.17;;
9974;SDS011;5028;50.974;4.968;2024-01-10T06:17:43;7.33;;;4.97;;
9974;SDS011;5028;50.974;4.968;2024-01-10T06:20:12;8.60;;;5.17;;
9974;SDS011;5028;50.974;4.968;2024-01-10T06:22:40;7.63;;;5.20;;
9974;SDS011;5028;50.974;4.968;2024-01-10T06:25:09;6.33;;;4.73;;
9974;SDS011;5028;50.974;4.968;2024-01-10T06:27:39;6.10;;;4.90;;
9974;SDS011;5028;50.974;4.968;2024-01-10T06:30:08;8.20;;;5.33;;
9974;SDS011;5028;50.974;4.968;2024-01-10T06:32:37;8.27;;;5.60;;
9974;SDS011;5028;50.974;4.968;2024-01-10T06:35:06;7.03;;;5.13;;
9974;SDS011;5028;50.974;4.968;2024-01-10T06:37:37;7.33;;;5.20;;
9974;SDS011;5028;50.974;4.968;2024-01-10T06:40:06;6.73;;;5.17;;
9974;SDS011;5028;50.974;4.968;2024-01-10T06:42:35;6.73;;;4.60;;
9974;SDS011;5028;50.974;4.968;2024-01-10T06:45:06;7.40;;;5.47;;
9974;SDS011;5028;50.974;4.968;2024-01-10T06:47:35;6.40;;;4.87;;
9974;SDS011;5028;50.974;4.968;2024-01-10T06:50:04;6.27;;;5.03;;
9974;SDS011;5028;50.974;4.968;2024-01-10T06:52:35;7.07;;;5.00;;
9974;SDS011;5028;50.974;4.968;2024-01-10T06:55:04;9.93;;;5.27;;
9974;SDS011;5028;50.974;4.968;2024-01-10T06:57:33;7.53;;;5.07;;
9974;SDS011;5028;50.974;4.968;2024-01-10T07:00:01;7.40;;;5.17;;
9974;SDS011;5028;50.974;4.968;2024-01-10T07:02:34;7.67;;;5.40;;
9974;SDS011;5028;50.974;4.968;2024-01-10T07:05:03;9.47;;;5.70;;
9974;SDS011;5028;50.974;4.968;2024-01-10T07:07:34;6.93;;;4.90;;
9974;SDS011;5028;50.974;4.968;2024-01-10T07:10:04;9.03;;;6.00;;
9974;SDS011;5028;50.974;4.968;2024-01-10T07:12:33;11.30;;;5.13;;
9974;SDS011;5028;50.974;4.968;2024-01-10T07:15:01;6.57;;;5.33;;
9974;SDS011;5028;50.974;4.968;2024-01-10T07:17:30;7.93;;;5.40;;
9974;SDS011;5028;50.974;4.968;2024-01-10T07:20:01;6.60;;;5.17;;
9974;SDS011;5028;50.974;4.968;2024-01-10T07:22:31;7.57;;;5.40;;
9974;SDS011;5028;50.974;4.968;2024-01-10T07:25:01;7.73;;;5.63;;
9974;SDS011;5028;50.974;4.968;2024-01-10T07:27:31;9.90;;;5.80;;
9974;SDS011;5028;50.974;4.968;2024-01-10T07:30:00;7.47;;;5.30;;
9974;SDS011;5028;50.974;4.968;2024-01-10T07:32:28;9.37;;;5.53;;
9974;SDS011;5028;50.974;4.968;2024-01-10T07:34:56;10.70;;;6.17;;
9974;SDS011;5028;50.974;4.968;2024-01-10T07:37:26;9.67;;;5.70;;
9974;SDS011;5028;50.974;4.968;2024-01-10T07:39:54;8.23;;;5.57;;
9974;SDS011;5028;50.974;4.968;2024-01-10T07:42:23;8.07;;;5.93;;
9974;SDS011;5028;50.974;4.968;2024-01-10T07:44:51;7.60;;;5.70;;
9974;SDS011;5028;50.974;4.968;2024-01-10T07:47:20;10.47;;;6.10;;
9974;SDS011;5028;50.974;4.968;2024-01-10T07:49:49;7.10;;;5.80;;
9974;SDS011;5028;50.974;4.968;2024-01-10T07:52:17;8.70;;;5.27;;
9974;SDS011;5028;50.974;4.968;2024-01-10T07:54:50;9.73;;;5.97;;
9974;SDS011;5028;50.974;4.968;2024-01-10T07:57:18;8.73;;;5.87;;
9974;SDS011;5028;50.974;4.968;2024-01-10T07:59:46;8.77;;;6.07;;
9974;SDS011;5028;50.974;4.968;2024-01-10T08:02:15;11.63;;;5.87;;
9974;SDS011;5028;50.974;4.968;2024-01-10T08:04:43;9.10;;;6.43;;
9974;SDS011;5028;50.974;4.968;2024-01-10T08:07:12;8.23;;;5.70;;
9974;SDS011;5028;50.974;4.968;2024-01-10T08:09:40;7.47;;;5.53;;
9974;SDS011;5028;50.974;4.968;2024-01-10T08:12:10;9.30;;;6.07;;
9974;SDS011;5028;50.974;4.968;2024-01-10T08:14:40;9.10;;;5.83;;
9974;SDS011;5028;50.974;4.968;2024-01-10T08:17:12;9.00;;;5.70;;
9974;SDS011;5028;50.974;4.968;2024-01-10T08:19:40;8.53;;;6.07;;
9974;SDS011;5028;50.974;4.968;2024-01-10T08:22:09;9.63;;;6.23;;
9974;SDS011;5028;50.974;4.968;2024-01-10T08:24:39;8.00;;;5.83;;
9974;SDS011;5028;50.974;4.968;2024-01-10T08:27:07;7.90;;;6.03;;
9974;SDS011;5028;50.974;4.968;2024-01-10T08:29:36;8.00;;;6.23;;
9974;SDS011;5028;50.974;4.968;2024-01-10T08:32:05;11.03;;;6.27;;
9974;SDS011;5028;50.974;4.968;2024-01-10T08:34:33;8.93;;;5.53;;
9974;SDS011;5028;50.974;4.968;2024-01-10T08:37:02;8.50;;;5.87;;
9974;SDS011;5028;50.974;4.968;2024-01-10T08:39:30;8.87;;;6.33;;
9974;SDS011;5028;50.974;4.968;2024-01-10T08:41:58;11.10;;;6.20;;
9974;SDS011;5028;50.974;4.968;2024-01-10T08:44:27;9.77;;;6.47;;
9974;SDS011;5028;50.974;4.968;2024-01-10T08:46:56;9.67;;;6.10;;
9974;SDS011;5028;50.974;4.968;2024-01-10T08:49:25;10.17;;;6.20;;
9974;SDS011;5028;50.974;4.968;2024-01-10T08:51:53;9.67;;;6.63;;
9974;SDS011;5028;50.974;4.968;2024-01-10T08:54:21;8.70;;;5.97;;
9974;SDS011;5028;50.974;4.968;2024-01-10T08:56:50;10.67;;;6.77;;
9974;SDS011;5028;50.974;4.968;2024-01-10T08:59:19;11.83;;;6.30;;
9974;SDS011;5028;50.974;4.968;2024-01-10T09:01:47;9.97;;;6.70;;
9974;SDS011;5028;50.974;4.968;2024-01-10T09:04:17;10.20;;;6.33;;
9974;SDS011;5028;50.974;4.968;2024-01-10T09:06:46;9.43;;;6.43;;
9974;SDS011;5028;50.974;4.968;2024-01-10T09:09:15;8.43;;;6.40;;
9974;SDS011;5028;50.974;4.968;2024-01-10T09:11:47;9.83;;;6.67;;
9974;SDS011;5028;50.974;4.968;2024-01-10T09:14:15;11.37;;;7.37;;
9974;SDS011;5028;50.974;4.968;2024-01-10T09:16:44;8.67;;;6.07;;
9974;SDS011;5028;50.974;4.968;2024-01-10T09:19:12;12.27;;;6.60;;
9974;SDS011;5028;50.974;4.968;2024-01-10T09:21:42;8.90;;;6.03;;
9974;SDS011;5028;50.974;4.968;2024-01-10T09:24:10;8.87;;;6.33;;
9974;SDS011;5028;50.974;4.968;2024-01-10T09:26:54;10.17;;;6.80;;
9974;SDS011;5028;50.974;4.968;2024-01-10T09:29:23;8.97;;;6.77;;
9974;SDS011;5028;50.974;4.968;2024-01-10T09:31:52;8.53;;;6.00;;
9974;SDS011;5028;50.974;4.968;2024-01-10T09:34:21;9.63;;;6.67;;
9974;SDS011;5028;50.974;4.968;2024-01-10T09:36:51;8.13;;;6.30;;
9974;SDS011;5028;50.974;4.968;2024-01-10T09:39:19;8.33;;;6.20;;
9974;SDS011;5028;50.974;4.968;2024-01-10T09:41:48;12.10;;;6.53;;
9974;SDS011;5028;50.974;4.968;2024-01-10T09:44:18;9.63;;;6.20;;
9974;SDS011;5028;50.974;4.968;2024-01-10T09:46:50;11.10;;;6.40;;
9974;SDS011;5028;50.974;4.968;2024-01-10T09:49:20;9.97;;;6.43;;
9974;SDS011;5028;50.974;4.968;2024-01-10T09:51:53;7.83;;;6.30;;
9974;SDS011;5028;50.974;4.968;2024-01-10T09:54:26;11.83;;;6.93;;
9974;SDS011;5028;50.974;4.968;2024-01-10T09:56:56;11.20;;;6.83;;
9974;SDS011;5028;50.974;4.968;2024-01-10T09:59:25;9.13;;;6.40;;
9974;SDS011;5028;50.974;4.968;2024-01-10T10:01:53;10.90;;;6.43;;
9974;SDS011;5028;50.974;4.968;2024-01-10T10:04:25;11.27;;;6.70;;
9974;SDS011;5028;50.974;4.968;2024-01-10T10:07:00;8.27;;;6.73;;
9974;SDS011;5028;50.974;4.968;2024-01-10T10:09:29;11.77;;;7.10;;
9974;SDS011;5028;50.974;4.968;2024-01-10T10:11:58;8.47;;;6.40;;
9974;SDS011;5028;50.974;4.968;2024-01-10T10:14:28;9.13;;;6.87;;
9974;SDS011;5028;50.974;4.968;2024-01-10T10:16:57;8.73;;;6.70;;
9974;SDS011;5028;50.974;4.968;2024-01-10T10:19:42;10.70;;;7.00;;
9974;SDS011;5028;50.974;4.968;2024-01-10T10:22:12;9.37;;;6.80;;
9974;SDS011;5028;50.974;4.968;2024-01-10T10:24:40;11.37;;;6.97;;
9974;SDS011;5028;50.974;4.968;2024-01-10T10:27:11;10.87;;;7.00;;
9974;SDS011;5028;50.974;4.968;2024-01-10T10:29:41;8.13;;;6.43;;
9974;SDS011;5028;50.974;4.968;2024-01-10T10:32:13;12.30;;;6.93;;
9974;SDS011;5028;50.974;4.968;2024-01-10T10:34:45;10.67;;;6.27;;
9974;SDS011;5028;50.974;4.968;2024-01-10T10:37:14;9.87;;;7.00;;
9974;SDS011;5028;50.974;4.968;2024-01-10T10:39:43;11.27;;;6.57;;
9974;SDS011;5028;50.974;4.968;2024-01-10T10:42:11;9.47;;;6.83;;
9974;SDS011;5028;50.974;4.968;2024-01-10T10:44:40;9.87;;;6.87;;
9974;SDS011;5028;50.974;4.968;2024-01-10T10:47:12;10.57;;;7.27;;
9974;SDS011;5028;50.974;4.968;2024-01-10T10:49:46;12.50;;;7.03;;
9974;SDS011;5028;50.974;4.968;2024-01-10T10:52:23;9.90;;;6.70;;
9974;SDS011;5028;50.974;4.968;2024-01-10T10:54:52;9.93;;;7.17;;
9974;SDS011;5028;50.974;4.968;2024-01-10T10:57:24;11.97;;;7.37;;
9974;SDS011;5028;50.974;4.968;2024-01-10T10:59:54;10.97;;;7.33;;
9974;SDS011;5028;50.974;4.968;2024-01-10T11:02:25;12.50;;;7.13;;
9974;SDS011;5028;50.974;4.968;2024-01-10T11:04:57;14.17;;;8.10;;
9974;SDS011;5028;50.974;4.968;2024-01-10T11:07:28;10.40;;;7.03;;
9974;SDS011;5028;50.974;4.968;2024-01-10T11:09:57;9.37;;;6.90;;
9974;SDS011;5028;50.974;4.968;2024-01-10T11:12:30;10.70;;;7.27;;
9974;SDS011;5028;50.974;4.968;2024-01-10T11:15:15;10.67;;;7.00;;
9974;SDS011;5028;50.974;4.968;2024-01-10T11:18:09;11.83;;;6.97;;
9974;SDS011;5028;50.974;4.968;2024-01-10T11:20:53;9.13;;;7.40;;
9974;SDS011;5028;50.974;4.968;2024-01-10T11:23:44;10.67;;;6.90;;
9974;SDS011;5028;50.974;4.968;2024-01-10T11:26:15;9.70;;;7.27;;
9974;SDS011;5028;50.974;4.968;2024-01-10T11:28:44;10.90;;;6.77;;
9974;SDS011;5028;50.974;4.968;2024-01-10T11:31:13;11.20;;;7.27;;
9974;SDS011;5028;50.974;4.968;2024-01-10T11:33:42;10.63;;;7.47;;
9974;SDS011;5028;50.974;4.968;2024-01-10T11:36:12;9.83;;;6.60;;
9974;SDS011;5028;50.974;4.968;2024-01-10T11:38:54;11.97;;;7.20;;
9974;SDS011;5028;50.974;4.968;2024-01-10T11:41:28;9.17;;;6.90;;
9974;SDS011;5028;50.974;4.968;2024-01-10T11:46:57;10.30;;;6.73;;
9974;SDS011;5028;50.974;4.968;2024-01-10T11:49:26;10.63;;;7.20;;
9974;SDS011;5028;50.974;4.968;2024-01-10T11:51:55;10.63;;;7.53;;
9974;SDS011;5028;50.974;4.968;2024-01-10T11:54:38;10.40;;;7.47;;
9974;SDS011;5028;50.974;4.968;2024-01-10T11:57:10;10.53;;;7.57;;
9974;SDS011;5028;50.974;4.968;2024-01-10T11:59:39;11.90;;;8.03;;
9974;SDS011;5028;50.974;4.968;2024-01-10T12:02:10;10.20;;;7.70;;
9974;SDS011;5028;50.974;4.968;2024-01-10T12:04:39;11.00;;;7.70;;
9974;SDS011;5028;50.974;4.968;2024-01-10T12:07:14;11.70;;;7.30;;
9974;SDS011;5028;50.974;4.968;2024-01-10T12:09:46;9.83;;;7.20;;
9974;SDS011;5028;50.974;4.968;2024-01-10T12:12:15;10.30;;;7.50;;
9974;SDS011;5028;50.974;4.968;2024-01-10T12:14:44;10.07;;;7.47;;
9974;SDS011;5028;50.974;4.968;2024-01-10T12:17:13;10.53;;;7.90;;
9974;SDS011;5028;50.974;4.968;2024-01-10T12:19:41;10.00;;;7.33;;
9974;SDS011;5028;50.974;4.968;2024-01-10T12:22:12;9.30;;;7.00;;
9974;SDS011;5028;50.974;4.968;2024-01-10T12:24:44;14.07;;;7.70;;
9974;SDS011;5028;50.974;4.968;2024-01-10T12:27:17;11.10;;;7.97;;
9974;SDS011;5028;50.974;4.968;2024-01-10T12:29:48;10.60;;;7.50;;
9974;SDS011;5028;50.974;4.968;2024-01-10T12:32:18;11.93;;;8.07;;
9974;SDS011;5028;50.974;4.968;2024-01-10T12:34:47;10.73;;;7.40;;
9974;SDS011;5028;50.974;4.968;2024-01-10T12:37:15;10.07;;;7.50;;
9974;SDS011;5028;50.974;4.968;2024-01-10T12:39:46;12.53;;;7.80;;
9974;SDS011;5028;50.974;4.968;2024-01-10T12:42:16;9.90;;;7.57;;
9974;SDS011;5028;50.974;4.968;2024-01-10T12:44:45;10.00;;;7.50;;
9974;SDS011;5028;50.974;4.968;2024-01-10T12:47:18;10.97;;;7.73;;
9974;SDS011;5028;50.974;4.968;2024-01-10T12:49:47;10.03;;;6.90;;
9974;SDS011;5028;50.974;4.968;2024-01-10T12:52:15;10.17;;;7.57;;
9974;SDS011;5028;50.974;4.968;2024-01-10T12:54:49;10.30;;;7.47;;
9974;SDS011;5028;50.974;4.968;2024-01-10T12:57:19;12.23;;;7.67;;
9974;SDS011;5028;50.974;4.968;2024-01-10T12:59:47;9.00;;;6.70;;
9974;SDS011;5028;50.974;4.968;2024-01-10T13:02:15;10.83;;;7.93;;
9974;SDS011;5028;50.974;4.968;2024-01-10T13:04:44;10.50;;;7.40;;
9974;SDS011;5028;50.974;4.968;2024-01-10T13:07:13;12.83;;;7.20;;
9974;SDS011;5028;50.974;4.968;2024-01-10T13:09:42;10.57;;;7.67;;
9974;SDS011;5028;50.974;4.968;2024-01-10T13:12:11;9.83;;;7.53;;
9974;SDS011;5028;50.974;4.968;2024-01-10T13:14:40;10.43;;;7.50;;
9974;SDS011;5028;50.974;4.968;2024-01-10T13:17:08;9.07;;;7.13;;
9974;SDS011;5028;50.974;4.968;2024-01-10T13:19:37;10.40;;;7.47;;
9974;SDS011;5028;50.974;4.968;2024-01-10T13:22:05;10.27;;;7.80;;
9974;SDS011;5028;50.974;4.968;2024-01-10T13:24:34;11.07;;;8.00;;
9974;SDS011;5028;50.974;4.968;2024-01-10T13:27:03;10.87;;;7.43;;
9974;SDS011;5028;50.974;4.968;2024-01-10T13:29:33;10.00;;;7.27;;
9974;SDS011;5028;50.974;4.968;2024-01-10T13:32:03;10.57;;;7.83;;
9974;SDS011;5028;50.974;4.968;2024-01-10T13:34:32;9.87;;;8.13;;
9974;SDS011;5028;50.974;4.968;2024-01-10T13:37:00;12.33;;;8.30;;
9974;SDS011;5028;50.974;4.968;2024-01-10T13:39:29;9.77;;;7.93;;
9974;SDS011;5028;50.974;4.968;2024-01-10T13:41:58;11.30;;;7.93;;
9974;SDS011;5028;50.974;4.968;2024-01-10T13:44:28;9.20;;;7.33;;
9974;SDS011;5028;50.974;4.968;2024-01-10T13:46:57;11.27;;;7.80;;
9974;SDS011;5028;50.974;4.968;2024-01-10T13:49:26;10.17;;;7.80;;
9974;SDS011;5028;50.974;4.968;2024-01-10T13:51:55;10.73;;;8.27;;
9974;SDS011;5028;50.974;4.968;2024-01-10T13:54:23;9.87;;;7.90;;
9974;SDS011;5028;50.974;4.968;2024-01-10T13:56:51;11.63;;;7.83;;
9974;SDS011;5028;50.974;4.968;2024-01-10T13:59:19;11.00;;;8.17;;
9974;SDS011;5028;50.974;4.968;2024-01-10T14:01:47;11.13;;;7.47;;
9974;SDS011;5028;50.974;4.968;2024-01-10T14:04:17;11.23;;;8.03;;
9974;SDS011;5028;50.974;4.968;2024-01-10T14:06:45;11.17;;;8.00;;
9974;SDS011;5028;50.974;4.968;2024-01-10T14:09:14;11.57;;;8.30;;
9974;SDS011;5028;50.974;4.968;2024-01-10T14:11:44;10.93;;;7.90;;
9974;SDS011;5028;50.974;4.968;2024-01-10T14:14:12;11.50;;;8.47;;
9974;SDS011;5028;50.974;4.968;2024-01-10T14:16:41;12.47;;;8.33;;
9974;SDS011;5028;50.974;4.968;2024-01-10T14:19:09;10.37;;;7.27;;
9974;SDS011;5028;50.974;4.968;2024-01-10T14:21:39;12.40;;;8.43;;
9974;SDS011;5028;50.974;4.968;2024-01-10T14:24:07;12.07;;;8.03;;
9974;SDS011;5028;50.974;4.968;2024-01-10T14:26:36;10.67;;;7.70;;
9974;SDS011;5028;50.974;4.968;2024-01-10T14:29:04;11.10;;;8.27;;
9974;SDS011;5028;50.974;4.968;2024-01-10T14:31:32;13.83;;;7.77;;
9974;SDS011;5028;50.974;4.968;2024-01-10T14:34:20;10.33;;;8.00;;
9974;SDS011;5028;50.974;4.968;2024-01-10T14:36:50;11.63;;;8.30;;
9974;SDS011;5028;50.974;4.968;2024-01-10T14:39:19;10.77;;;8.13;;
9974;SDS011;5028;50.974;4.968;2024-01-10T14:41:48;12.47;;;8.50;;
9974;SDS011;5028;50.974;4.968;2024-01-10T14:44:17;12.77;;;8.43;;
9974;SDS011;5028;50.974;4.968;2024-01-10T14:46:45;9.43;;;7.77;;
9974;SDS011;5028;50.974;4.968;2024-01-10T14:49:29;12.10;;;9.13;;
9974;SDS011;5028;50.974;4.968;2024-01-10T14:51:59;11.90;;;8.17;;
9974;SDS011;5028;50.974;4.968;2024-01-10T14:54:28;11.73;;;8.63;;
9974;SDS011;5028;50.974;4.968;2024-01-10T14:56:56;10.80;;;8.13;;
9974;SDS011;5028;50.974;4.968;2024-01-10T14:59:25;12.00;;;8.40;;
9974;SDS011;5028;50.974;4.968;2024-01-10T15:02:09;10.83;;;8.33;;
9974;SDS011;5028;50.974;4.968;2024-01-10T15:04:37;11.37;;;8.50;;
9974;SDS011;5028;50.974;4.968;2024-01-10T15:07:07;12.03;;;8.43;;
9974;SDS011;5028;50.974;4.968;2024-01-10T15:09:36;11.93;;;8.20;;
9974;SDS011;5028;50.974;4.968;2024-01-10T15:12:05;11.50;;;7.93;;
9974;SDS011;5028;50.974;4.968;2024-01-10T15:14:35;11.53;;;8.70;;
9974;SDS011;5028;50.974;4.968;2024-01-10T15:17:06;21.97;;;12.77;;
9974;SDS011;5028;50.974;4.968;2024-01-10T15:19:37;14.83;;;10.50;;
9974;SDS011;5028;50.974;4.968;2024-01-10T15:22:07;13.60;;;9.47;;
9974;SDS011;5028;50.974;4.968;2024-01-10T15:24:36;14.17;;;9.77;;
9974;SDS011;5028;50.974;4.968;2024-01-10T15:27:04;12.40;;;8.53;;